Latest Weather Observations for Maria Island

IDT60901

Issued at 5:15 pm EDT Saturday 25 October 2014 (issued every 10 minutes, with the page automatically refreshed every 10 minutes)

About weather observations | Map of Hobart area stations | Latest observations for Hobart area | Other Formats
Station Details ID: 092124 Name: MARIA ISLAND (POINT LESUEUR) Lat: -42.66 Lon: 148.02 Height: 28.0 m
Data from the previous 72 hours. | See also: Recent months at Maria Island
Date/Time
EDT
Tmp

°C
App
Tmp
°C
Dew
Point
°C
Rel
Hum
%
Delta-T

°C
Wind Press
QNH
hPa
Press
MSL
hPa
Rain
since
9 am
mm
Dir
 
Spd
km/h
Gust
km/h
Spd
kts
Gust
kts
25/05:00pm 13.1 8.5 8.0 71 2.5 SE 22 28 12 15 1016.2 1016.2 0.0
25/04:30pm 13.7 9.2 8.5 71 2.6 SE 22 30 12 16 1016.1 1016.1 0.0
25/04:00pm 13.6 8.9 9.1 74 2.3 SE 24 33 13 18 1016.1 1016.1 0.0
25/03:30pm 13.7 9.0 9.4 75 2.2 SE 24 30 13 16 1016.0 1016.0 0.0
25/03:00pm 13.9 8.7 10.1 78 2.0 SSE 28 37 15 20 1015.8 1015.8 0.0
25/02:30pm 14.5 10.1 10.3 76 2.2 SE 24 33 13 18 1015.8 1015.8 0.0
25/02:00pm 15.2 10.5 9.3 68 3.0 SE 24 32 13 17 1015.8 1015.8 0.0
25/01:30pm 16.0 12.2 9.9 67 3.2 E 20 30 11 16 1015.2 1015.2 0.0
25/01:00pm 15.9 13.2 10.2 69 3.0 SE 15 22 8 12 1015.5 1015.5 0.0
25/12:30pm 16.5 12.6 10.8 69 3.0 S 22 26 12 14 1015.4 1015.4 0.0
25/12:00pm 16.0 11.4 11.0 72 2.7 SSW 26 30 14 16 1015.3 1015.3 0.0
25/11:30am 16.1 12.6 10.8 71 2.8 S 20 24 11 13 1015.3 1015.3 0.0
25/11:00am 15.5 10.8 10.5 72 2.6 S 26 30 14 16 1015.4 1015.4 0.0
25/10:30am 14.4 8.8 10.0 75 2.3 SSW 30 33 16 18 1015.1 1015.1 0.0
25/10:00am 15.1 9.0 10.5 74 2.4 SSW 33 39 18 21 1015.0 1015.0 0.0
25/09:30am 14.8 10.6 11.0 78 2.0 S 24 28 13 15 1014.7 1014.7 0.0
25/09:00am 13.6 8.6 10.8 83 1.5 S 28 32 15 17 1014.5 1014.5 0.0
25/08:30am 13.8 7.5 11.0 83 1.5 SSW 35 41 19 22 1014.0 1014.0 0.0
25/08:00am 13.6 6.1 11.0 84 1.4 SSW 41 48 22 26 1013.5 1013.5 0.0
25/07:30am 13.8 7.7 11.7 87 1.1 SSW 35 39 19 21 1012.9 1012.9 0.0
25/07:00am 13.6 6.8 11.8 89 1.0 SSW 39 44 21 24 1012.3 1012.3 0.0
25/06:30am 13.8 8.7 12.0 89 1.0 SSW 30 33 16 18 1012.2 1012.2 0.0
25/06:00am 13.8 11.6 12.2 90 0.9 S 15 19 8 10 1011.8 1011.8 0.0
25/05:30am 13.7 11.4 11.9 89 1.0 S 15 19 8 10 1011.5 1011.5 0.0
25/05:00am 13.7 10.2 12.1 90 0.9 SSW 22 28 12 15 1010.7 1010.7 0.0
25/04:30am 13.3 11.8 11.9 91 0.8 S 11 15 6 8 1010.4 1010.4 0.0
25/04:00am 13.1 12.4 11.3 89 1.0 E 6 9 3 5 1009.5 1009.5 0.0
25/03:30am 13.4 12.6 11.6 89 1.0 E 7 11 4 6 1009.4 1009.4 0.0
25/03:00am 14.5 14.3 12.9 90 0.9 SE 6 9 3 5 1009.1 1009.1 0.0
25/02:30am 14.3 13.9 13.0 92 0.7 ESE 7 13 4 7 1008.7 1008.7 0.0
25/02:00am 14.4 11.6 13.1 92 0.7 S 20 26 11 14 1008.3 1008.3 0.0
25/01:30am 14.2 11.6 13.1 93 0.6 SSW 19 22 10 12 1008.5 1008.5 0.0
25/01:00am 14.9 14.4 12.6 86 1.3 SW 7 11 4 6 1008.2 1008.2 0.0
25/12:30am 15.3 16.0 13.3 88 1.1 NE 2 6 1 3 1007.9 1007.9 0.0
25/12:00am 15.0 14.7 13.4 90 0.9 N 7 9 4 5 1007.9 1007.9 0.0
 
Date/Time
EDT
Tmp

°C
App
Tmp
°C
Dew
Point
°C
Rel
Hum
%
Delta-T

°C
Wind Press
QNH
hPa
Press
MSL
hPa
Rain
since
9 am
mm
Dir
 
Spd
km/h
Gust
km/h
Spd
kts
Gust
kts
24/11:30pm 14.6 12.1 13.5 93 0.6 N 19 22 10 12 1007.7 1007.7 0.0
24/11:00pm 14.6 12.1 13.6 94 0.6 N 19 22 10 12 1007.9 1007.9 0.0
24/10:30pm 14.8 12.3 14.0 95 0.5 N 20 24 11 13 1007.9 1007.9 0.0
24/10:00pm 14.7 11.1 14.1 96 0.3 N 26 30 14 16 1008.1 1008.1 0.0
24/09:30pm 14.4 11.4 13.8 96 0.3 N 22 24 12 13 1008.9 1008.9 0.0
24/09:00pm 14.1 11.0 13.3 95 0.4 N 22 24 12 13 1008.7 1008.7 0.0
24/08:30pm 14.6 9.6 13.3 92 0.7 N 32 41 17 22 1008.7 1008.7 0.0
24/08:00pm 15.6 9.8 14.0 90 0.9 N 37 48 20 26 1007.5 1007.5 0.0
24/07:30pm 15.6 9.8 13.8 89 1.0 NNE 37 46 20 25 1007.8 1007.8 0.0
24/07:00pm 15.2 11.1 13.7 91 0.8 N 28 37 15 20 1009.3 1009.3 0.0
24/06:30pm 15.6 10.1 13.6 88 1.1 N 35 46 19 25 1009.8 1009.8 0.0
24/06:00pm 15.7 9.4 13.5 87 1.2 NNE 39 50 21 27 1009.1 1009.1 0.0
24/05:30pm 15.5 10.0 13.7 89 1.0 NNE 35 43 19 23 1009.6 1009.6 0.0
24/05:00pm 15.4 9.4 13.4 88 1.1 NNE 37 50 20 27 1009.8 1009.8 0.0
24/04:30pm 15.4 9.9 13.6 89 1.0 NNE 35 48 19 26 1010.3 1010.3 0.0
24/04:00pm 15.0 9.5 13.5 91 0.8 NNE 35 46 19 25 1010.8 1010.8 0.0
24/03:30pm 14.8 8.8 13.3 91 0.8 NNE 37 50 20 27 1011.2 1011.2 0.0
24/03:00pm 14.7 8.7 13.2 91 0.8 NNE 37 48 20 26 1012.0 1012.0 0.0
24/02:30pm 14.6 8.5 13.0 90 0.9 NNE 37 48 20 26 1012.6 1012.6 0.0
24/02:00pm 14.3 8.9 12.9 91 0.8 NNE 33 43 18 23 1013.4 1013.4 0.0
24/01:30pm 14.0 8.2 12.6 91 0.8 N 35 44 19 24 1014.1 1014.1 0.0
24/01:00pm 14.2 8.7 12.6 90 0.9 NNE 33 41 18 22 1014.8 1014.8 0.0
24/12:30pm 14.2 8.6 12.1 87 1.1 NNE 33 43 18 23 1015.2 1015.2 0.0
24/12:00pm 13.9 8.1 11.6 86 1.2 NNE 33 43 18 23 1015.8 1015.8 0.0
24/11:30am 14.0 8.3 11.2 83 1.5 NNE 32 46 17 25 1016.3 1016.3 0.0
24/11:00am 13.5 8.1 10.9 84 1.4 NNE 30 48 16 26 1017.0 1017.0 0.0
24/10:58am 13.6 8.2 11.0 84 1.4 NNE 30 48 16 26 1017.0 1017.0 0.0
24/10:30am 13.5 8.8 10.7 83 1.5 NNE 26 37 14 20 1017.5 1017.5 0.0
24/10:00am 13.5 7.8 9.7 78 1.9 NNE 30 41 16 22 1018.0 1018.0 0.0
24/09:33am 13.3 7.4 9.0 75 2.2 NNE 30 50 16 27 1018.2 1018.2 0.0
24/09:30am 13.4 7.5 9.1 75 2.2 NNE 30 39 16 21 1018.5 1018.5 0.0
24/09:00am 13.2 5.9 8.7 74 2.3 NNE 37 48 20 26 1019.2 1019.2 0.0
24/08:30am 13.1 6.0 8.2 72 2.4 NNE 35 46 19 25 1019.5 1019.5 0.0
24/08:00am 13.1 6.9 7.8 70 2.6 NNE 30 41 16 22 1020.0 1020.0 0.0
24/07:30am 12.6 5.9 7.5 71 2.5 NNE 32 41 17 22 1020.1 1020.1 0.0
24/07:00am 12.5 5.7 7.0 69 2.6 NNE 32 44 17 24 1020.3 1020.3 0.0
24/06:30am 12.2 4.7 6.5 68 2.7 NNE 35 44 19 24 1020.6 1020.6 0.0
24/06:00am 12.2 5.2 6.9 70 2.5 NNE 33 43 18 23 1020.7 1020.7 0.0
24/05:30am 12.0 5.5 6.7 70 2.5 NNE 30 41 16 22 1021.0 1021.0 0.0
24/05:00am 11.9 6.6 6.6 70 2.5 NNE 24 32 13 17 1021.2 1021.2 0.0
24/04:30am 11.8 7.2 6.5 70 2.5 NNE 20 28 11 15 1021.6 1021.6 0.0
24/04:00am 11.8 6.8 6.5 70 2.5 NNE 22 26 12 14 1022.3 1022.3 0.0
24/03:30am 11.8 7.2 6.5 70 2.5 NNE 20 26 11 14 1022.4 1022.4 0.0
24/03:00am 11.5 7.0 6.2 70 2.5 NNE 19 22 10 12 1022.9 1022.9 0.0
24/02:30am 11.6 5.3 5.9 68 2.7 NNE 28 35 15 19 1023.2 1023.2 0.0
24/02:00am 11.5 4.8 5.8 68 2.6 NNE 30 37 16 20 1023.4 1023.4 0.0
24/01:30am 11.3 5.4 5.6 68 2.6 NNE 26 33 14 18 1023.8 1023.8 0.0
24/01:00am 11.4 5.5 5.9 69 2.5 NNE 26 32 14 17 1024.1 1024.1 0.0
24/12:30am 11.3 4.6 5.6 68 2.6 NNE 30 37 16 20 1024.5 1024.5 0.0
24/12:00am 11.3 5.3 5.4 67 2.7 NNE 26 35 14 19 1025.0 1025.0 0.0
 
Date/Time
EDT
Tmp

°C
App
Tmp
°C
Dew
Point
°C
Rel
Hum
%
Delta-T

°C
Wind Press
QNH
hPa
Press
MSL
hPa
Rain
since
9 am
mm
Dir
 
Spd
km/h
Gust
km/h
Spd
kts
Gust
kts
23/11:30pm 11.2 5.7 5.9 70 2.5 NNE 24 33 13 18 1024.9 1024.9 0.0
23/11:00pm 10.8 6.1 5.1 68 2.6 NNE 19 24 10 13 1025.2 1025.2 0.0
23/10:30pm 10.3 5.7 5.7 73 2.1 NE 19 28 10 15 1025.4 1025.4 0.0
23/10:00pm 8.9 5.1 4.1 72 2.1 NE 13 19 7 10 1026.0 1026.0 0.0
23/09:30pm 9.3 5.9 4.1 70 2.3 NE 11 11 6 6 1026.2 1026.2 0.0
23/09:00pm 10.6 6.6 4.7 67 2.6 ENE 15 19 8 10 1026.1 1026.1 0.0
23/08:30pm 10.8 7.5 4.7 66 2.8 NE 11 17 6 9 1026.2 1026.2 0.0
23/08:00pm 11.4 7.8 4.8 64 3.0 ENE 13 19 7 10 1026.0 1026.0 0.0
23/07:30pm 11.4 7.7 4.6 63 3.1 ENE 13 17 7 9 1025.8 1025.8 0.0
23/07:00pm 11.6 7.2 4.8 63 3.1 E 17 24 9 13 1025.6 1025.6 0.0
23/06:30pm 11.9 7.9 4.9 62 3.2 E 15 20 8 11 1025.6 1025.6 0.0
23/06:00pm 12.1 7.7 4.8 61 3.3 E 17 20 9 11 1025.3 1025.3 0.0
23/05:30pm 12.2 7.3 5.1 62 3.3 E 20 26 11 14 1025.3 1025.3 0.0
23/05:00pm 12.9 8.2 5.1 59 3.6 E 19 26 10 14 1025.3 1025.3 0.0
23/04:30pm 13.1 7.8 5.0 58 3.8 ESE 22 28 12 15 1025.2 1025.2 0.0
23/04:00pm 13.0 8.0 4.7 57 3.8 ESE 20 30 11 16 1025.1 1025.1 0.0
23/03:30pm 13.0 8.0 4.4 56 3.9 E 20 24 11 13 1025.2 1025.2 0.0
23/03:00pm 13.3 8.3 4.5 55 4.0 E 20 28 11 15 1025.4 1025.4 0.0
23/02:30pm 13.3 8.3 4.5 55 4.0 E 20 30 11 16 1025.5 1025.5 0.0
23/02:00pm 13.8 9.0 4.9 55 4.1 ESE 19 26 10 14 1025.4 1025.4 0.0
23/01:30pm 14.1 9.8 5.2 55 4.2 SE 17 26 9 14 1025.5 1025.5 0.0
23/01:00pm 13.7 8.9 4.8 55 4.1 SE 19 26 10 14 1025.4 1025.4 0.0
23/12:30pm 13.2 8.3 4.1 54 4.1 SE 19 28 10 15 1025.6 1025.6 0.0
23/12:00pm 12.8 7.9 5.0 59 3.6 SSE 20 26 11 14 1025.9 1025.9 0.0
23/11:30am 12.9 8.0 5.1 59 3.6 S 20 24 11 13 1026.0 1026.0 0.0
23/11:00am 13.8 9.3 6.2 60 3.6 S 19 28 10 15 1026.1 1026.1 0.0
23/10:30am 12.1 6.4 5.0 62 3.3 S 24 32 13 17 1026.0 1026.0 0.0
23/10:00am 12.1 6.8 4.8 61 3.3 S 22 28 12 15 1026.0 1026.0 0.0
23/09:30am 12.4 7.1 4.9 60 3.4 SSE 22 28 12 15 1025.8 1025.8 0.0
23/09:00am 12.0 6.4 5.2 63 3.1 S 24 32 13 17 1025.5 1025.5 0.0
23/08:30am 11.4 5.6 4.6 63 3.1 S 24 32 13 17 1025.2 1025.2 0.0
23/08:00am 11.5 5.5 5.2 65 2.9 S 26 35 14 19 1024.9 1024.9 0.0
23/07:30am 11.5 5.6 5.8 68 2.7 S 26 32 14 17 1024.4 1024.4 0.0
23/07:00am 11.3 4.2 5.6 68 2.6 SSW 32 39 17 21 1023.8 1023.8 0.0
23/06:30am 11.2 4.1 5.7 69 2.5 SSW 32 37 17 20 1023.2 1023.2 0.0
23/06:00am 11.3 4.8 6.4 72 2.3 SSW 30 33 16 18 1022.8 1022.8 0.0
23/05:30am 11.1 4.1 6.0 71 2.4 S 32 37 17 20 1022.3 1022.3 0.0
23/05:00am 11.3 4.8 6.4 72 2.3 S 30 35 16 19 1021.8 1021.8 0.0
23/04:30am 11.3 4.2 6.4 72 2.3 S 33 43 18 23 1021.5 1021.5 0.0
23/04:00am 11.5 3.0 6.8 73 2.2 S 41 50 22 27 1021.1 1021.1 0.0
23/03:30am 11.5 3.1 7.2 75 2.1 S 41 52 22 28 1020.9 1020.9 0.0
23/03:00am 11.6 2.2 8.8 83 1.4 SSW 48 56 26 30 1020.7 1020.7 0.0
23/02:30am 12.2 3.3 9.2 82 1.5 SSW 46 54 25 29 1020.2 1020.2 0.0
23/02:00am 12.3 4.3 10.5 89 0.9 SSW 43 50 23 27 1020.4 1020.4 0.0
23/01:30am 12.8 3.6 10.9 88 1.0 SSW 50 59 27 32 1019.7 1019.7 0.0
23/01:00am 13.4 5.3 10.8 84 1.4 SSW 44 52 24 28 1019.8 1019.8 0.0
23/12:30am 13.5 6.6 10.3 81 1.7 SSW 37 48 20 26 1019.6 1019.6 0.0
23/12:00am 13.4 5.9 10.8 84 1.4 SSW 41 46 22 25 1019.2 1019.2 0.0
 
Date/Time
EDT
Tmp

°C
App
Tmp
°C
Dew
Point
°C
Rel
Hum
%
Delta-T

°C
Wind Press
QNH
hPa
Press
MSL
hPa
Rain
since
9 am
mm
Dir
 
Spd
km/h
Gust
km/h
Spd
kts
Gust
kts
22/11:30pm 13.5 5.4 10.7 83 1.5 SSW 44 52 24 28 1018.6 1018.6 0.0
22/11:00pm 13.6 6.3 11.5 87 1.1 SSW 41 50 22 27 1018.3 1018.3 0.0
22/10:30pm 13.9 8.3 12.1 89 1.0 SSW 33 41 18 22 1017.9 1017.9 0.0
22/10:00pm 13.7 10.5 11.9 89 1.0 S 20 26 11 14 1017.7 1017.7 0.0
22/09:30pm 13.9 9.1 11.8 87 1.1 S 28 35 15 19 1017.4 1017.4 0.0
22/09:00pm 14.0 7.9 11.7 86 1.2 SSE 35 43 19 23 1016.9 1016.9 0.0
22/08:30pm 14.4 6.9 11.0 80 1.8 SSE 41 52 22 28 1016.3 1016.3 0.0
22/08:23pm 14.5 6.6 10.7 78 2.0 SSE 43 50 23 27 1015.9 1015.9 0.0
22/08:00pm 13.9 7.4 12.8 93 0.6 S 39 50 21 27 1014.8 1014.8 0.0
22/07:56pm 13.9 8.6 12.6 92 0.7 S 32 46 17 25 1014.8 1014.8 0.0
22/07:30pm 14.0 11.0 12.6 91 0.8 SSW 20 24 11 13 1014.2 1014.2 0.0
22/07:00pm 15.0 14.1 12.7 86 1.3 NW 9 20 5 11 1013.9 1013.9 0.0
22/06:30pm 16.2 15.4 11.8 75 2.4 WNW 7 9 4 5 1013.6 1013.6 0.0
22/06:00pm 15.6 15.2 12.5 82 1.7 SSW 6 6 3 3 1013.5 1013.5 0.0
22/05:30pm 16.4 16.5 12.6 78 2.1 WNW 4 6 2 3 1013.8 1013.8 0.0

Latest Capital City Observations: Canberra | Sydney | Melbourne | Brisbane | Adelaide | Perth | Hobart | Darwin

Other Formats:

Comma delimited format used in spreadsheet applications
http://www.bom.gov.au/fwo/IDT60901/IDT60901.95988.axf

JavaScript Object Notation format (JSON) in row-major order
http://www.bom.gov.au/fwo/IDT60901/IDT60901.95988.json